Time;durP1;ratioP1;P1;durP2;ratioP2;P2;SDS_P1;SDS_P2;PMS_P1;PMS_P2;Temp;Humidity;BMP_temperature;BMP_pressure;BME280_temperature;BME280_humidity;BME280_pressure;Samples;Min_cycle;Max_cycle;Signal;HPM_P1;HPM_P2
2021/01/20 00:01:10;;;;;;;11.70;8.07;;;0.70;88.50;;;;;;4977690;28;20292;-74
2021/01/20 00:03:37;;;;;;;10.10;7.90;;;0.60;88.30;;;;;;4977501;28;20248;-77
2021/01/20 00:06:05;;;;;;;14.90;8.73;;;0.60;88.60;;;;;;4977033;28;20292;-75
2021/01/20 00:08:31;;;;;;;11.68;8.70;;;0.60;89.60;;;;;;4976834;28;20229;-76
2021/01/20 00:10:57;;;;;;;11.90;9.05;;;0.70;90.00;;;;;;4977341;28;20240;-78
2021/01/20 00:13:24;;;;;;;13.57;9.25;;;0.70;89.90;;;;;;4977746;28;20290;-76
2021/01/20 00:15:50;;;;;;;13.07;10.00;;;0.60;90.30;;;;;;4976547;28;20244;-76
2021/01/20 00:18:17;;;;;;;13.82;9.82;;;0.70;91.10;;;;;;4976687;28;20311;-74
2021/01/20 00:20:43;;;;;;;16.35;10.73;;;0.60;91.10;;;;;;4976966;28;20201;-75
2021/01/20 00:23:11;;;;;;;13.18;9.85;;;0.50;91.40;;;;;;4976659;28;20230;-75
2021/01/20 00:25:37;;;;;;;11.50;9.32;;;0.40;91.60;;;;;;4977191;28;20376;-74
2021/01/20 00:28:03;;;;;;;12.82;8.90;;;0.40;91.60;;;;;;4976277;28;20324;-78
2021/01/20 00:30:30;;;;;;;12.95;8.75;;;0.40;91.60;;;;;;4977175;28;20215;-75
2021/01/20 00:32:58;;;;;;;14.10;9.35;;;0.30;91.80;;;;;;4977161;28;20299;-77
2021/01/20 00:35:25;;;;;;;15.27;9.02;;;0.30;92.00;;;;;;4976967;28;20288;-74
2021/01/20 00:37:52;;;;;;;15.52;9.50;;;0.20;92.00;;;;;;4976491;28;20213;-74
2021/01/20 00:40:19;;;;;;;12.70;8.73;;;0.30;92.70;;;;;;4976729;28;20231;-73
2021/01/20 00:42:46;;;;;;;13.82;8.77;;;0.20;92.60;;;;;;4976672;28;20321;-74
2021/01/20 00:45:13;;;;;;;15.95;10.65;;;0.20;92.70;;;;;;4977040;28;20232;-76
2021/01/20 00:47:39;;;;;;;11.80;9.20;;;0.20;93.10;;;;;;4975884;28;20268;-73
2021/01/20 00:50:07;;;;;;;11.10;8.30;;;0.20;93.40;;;;;;4977156;28;20712;-74
2021/01/20 00:52:34;;;;;;;12.77;8.85;;;0.20;93.50;;;;;;4976692;28;20348;-75
2021/01/20 00:55:00;;;;;;;14.05;9.50;;;0.20;93.80;;;;;;4975846;28;20576;-73
2021/01/20 00:57:27;;;;;;;14.45;8.65;;;0.20;94.10;;;;;;4975160;28;20252;-77
2021/01/20 00:59:54;;;;;;;11.50;8.65;;;0.20;94.00;;;;;;4975706;28;20269;-73
2021/01/20 01:02:20;;;;;;;11.45;9.00;;;0.20;94.20;;;;;;4975570;28;20245;-74
2021/01/20 01:04:46;;;;;;;12.18;9.00;;;0.30;94.40;;;;;;4975409;28;20690;-74
2021/01/20 01:07:13;;;;;;;13.10;9.65;;;0.40;94.20;;;;;;4975695;28;20641;-74
2021/01/20 01:09:39;;;;;;;13.80;9.27;;;0.40;93.40;;;;;;4976838;28;20304;-75
2021/01/20 01:12:06;;;;;;;13.40;9.35;;;0.40;93.40;;;;;;4984051;28;20232;-79
2021/01/20 01:14:34;;;;;;;12.98;9.07;;;0.40;93.20;;;;;;4989019;28;20236;-76
2021/01/20 01:17:01;;;;;;;16.52;9.75;;;0.40;93.10;;;;;;4989803;28;20201;-72
2021/01/20 01:19:27;;;;;;;12.35;9.40;;;0.30;92.90;;;;;;4990764;28;20229;-74
2021/01/20 01:21:54;;;;;;;14.77;8.68;;;0.30;93.00;;;;;;4988740;28;20234;-72
2021/01/20 01:24:20;;;;;;;17.40;9.98;;;0.20;92.80;;;;;;4984798;28;20260;-75
2021/01/20 01:26:46;;;;;;;13.40;9.55;;;0.20;93.00;;;;;;4995865;28;20209;-74
2021/01/20 01:29:13;;;;;;;13.65;9.07;;;0.20;93.30;;;;;;4994652;28;20256;-77
2021/01/20 01:31:40;;;;;;;10.93;7.82;;;0.20;93.30;;;;;;4993660;28;20212;-77
2021/01/20 01:34:06;;;;;;;11.50;8.40;;;0.20;93.60;;;;;;4993740;28;20232;-76
2021/01/20 01:36:33;;;;;;;11.40;8.70;;;0.30;94.20;;;;;;4984858;28;20248;-75
2021/01/20 01:38:59;;;;;;;14.13;9.95;;;0.20;94.00;;;;;;4986653;28;20695;-75
2021/01/20 01:41:26;;;;;;;14.77;8.85;;;0.20;94.10;;;;;;4979590;28;20287;-74
2021/01/20 01:43:52;;;;;;;15.77;9.48;;;0.10;94.20;;;;;;4976193;28;20588;-74
2021/01/20 01:46:19;;;;;;;17.70;9.40;;;0.10;94.50;;;;;;4976491;28;20205;-74
2021/01/20 01:48:46;;;;;;;14.70;9.25;;;0.10;95.00;;;;;;4977317;28;20320;-74
2021/01/20 01:51:12;;;;;;;14.30;9.75;;;0.20;95.10;;;;;;4976730;28;20232;-74
2021/01/20 01:53:39;;;;;;;13.50;9.70;;;0.20;95.10;;;;;;4979379;28;20209;-74
2021/01/20 01:56:06;;;;;;;12.77;8.93;;;0.20;95.10;;;;;;4977328;28;20218;-74
2021/01/20 01:58:32;;;;;;;14.63;9.60;;;0.40;95.40;;;;;;4977361;28;20312;-74
2021/01/20 02:01:00;;;;;;;13.88;9.45;;;0.40;95.20;;;;;;4976654;28;20205;-75
2021/01/20 02:03:27;;;;;;;14.13;7.90;;;0.50;95.20;;;;;;4977193;28;20591;-73
2021/01/20 02:05:54;;;;;;;9.98;8.13;;;0.60;95.20;;;;;;4977994;28;20205;-73
2021/01/20 02:08:21;;;;;;;13.80;8.65;;;0.70;95.20;;;;;;4976493;28;20788;-74
2021/01/20 02:10:47;;;;;;;12.13;8.48;;;0.70;95.20;;;;;;4976721;28;20272;-75
2021/01/20 02:13:28;;;;;;;12.43;7.47;;;0.70;95.00;;;;;;4975839;28;20288;-74
2021/01/20 02:16:02;;;;;;;11.77;8.35;;;0.70;94.70;;;;;;4975348;28;20273;-73
2021/01/20 02:18:33;;;;;;;10.00;6.95;;;0.70;94.40;;;;;;4974831;28;20804;-74
2021/01/20 02:21:31;;;;;;;10.02;7.75;;;0.70;93.50;;;;;;4974621;28;20673;-73
2021/01/20 02:24:00;;;;;;;10.38;7.28;;;0.80;93.80;;;;;;4974231;28;20299;-74
2021/01/20 02:26:36;;;;;;;13.50;8.10;;;0.80;93.60;;;;;;4973987;28;20304;-73
2021/01/20 02:29:31;;;;;;;9.40;7.30;;;0.80;93.50;;;;;;4974085;28;20260;-75
2021/01/20 02:32:02;;;;;;;11.45;7.20;;;0.80;93.30;;;;;;4974428;28;20693;-74
2021/01/20 02:34:29;;;;;;;8.70;7.50;;;0.90;93.30;;;;;;4974557;28;20224;-74
2021/01/20 02:36:56;;;;;;;10.40;7.90;;;0.90;93.00;;;;;;4974641;28;20209;-75
2021/01/20 02:39:23;;;;;;;12.57;9.25;;;0.90;92.70;;;;;;4974426;28;20229;-74
2021/01/20 02:41:49;;;;;;;14.18;8.45;;;0.90;92.20;;;;;;4974606;28;20544;-74
2021/01/20 02:44:16;;;;;;;9.45;7.25;;;0.80;91.80;;;;;;4973970;28;20616;-74
2021/01/20 02:46:43;;;;;;;12.98;8.13;;;0.70;91.70;;;;;;4973959;28;20296;-75
2021/01/20 02:49:11;;;;;;;11.73;8.23;;;0.70;91.70;;;;;;4973889;28;20728;-75
2021/01/20 02:51:46;;;;;;;9.48;7.53;;;0.60;91.70;;;;;;4973243;28;20690;-76
2021/01/20 02:54:15;;;;;;;13.05;7.10;;;0.60;91.70;;;;;;4974523;28;20658;-75
2021/01/20 02:56:45;;;;;;;10.70;7.30;;;0.60;91.70;;;;;;4973575;28;20633;-76
2021/01/20 02:59:12;;;;;;;11.20;7.85;;;0.50;91.70;;;;;;4973625;28;20316;-75
2021/01/20 03:01:43;;;;;;;10.30;7.75;;;0.50;91.70;;;;;;4973556;28;20300;-75
2021/01/20 03:04:12;;;;;;;9.70;7.43;;;0.40;91.60;;;;;;4976539;28;20655;-75
2021/01/20 03:06:41;;;;;;;8.98;7.68;;;0.40;92.00;;;;;;4976175;28;20332;-73
2021/01/20 03:09:08;;;;;;;9.57;6.70;;;0.40;92.30;;;;;;4976959;28;20288;-75
2021/01/20 03:11:44;;;;;;;12.07;7.10;;;0.40;92.80;;;;;;4977450;28;20300;-77
2021/01/20 03:14:10;;;;;;;10.63;7.97;;;0.40;92.90;;;;;;4977704;28;20201;-74
2021/01/20 03:16:37;;;;;;;11.63;7.65;;;0.40;93.20;;;;;;4978242;28;20236;-74
2021/01/20 03:19:03;;;;;;;11.48;7.03;;;0.40;93.40;;;;;;4978065;28;20320;-75
2021/01/20 03:21:30;;;;;;;10.52;7.70;;;0.40;93.50;;;;;;4977618;28;20633;-76
2021/01/20 03:23:57;;;;;;;10.32;6.93;;;0.50;93.70;;;;;;4976786;28;20756;-75
2021/01/20 03:26:24;;;;;;;9.95;6.60;;;0.40;93.60;;;;;;4984758;28;20229;-75
2021/01/20 03:28:50;;;;;;;9.23;6.90;;;0.40;93.60;;;;;;4978239;28;20233;-75
2021/01/20 03:31:17;;;;;;;15.05;7.95;;;0.40;93.60;;;;;;4978159;28;20270;-78
2021/01/20 03:33:43;;;;;;;11.05;7.57;;;0.50;93.80;;;;;;4978141;28;20637;-75
2021/01/20 03:36:10;;;;;;;11.40;6.75;;;0.50;93.50;;;;;;4977146;28;20682;-76
2021/01/20 03:38:37;;;;;;;9.38;6.93;;;0.40;93.40;;;;;;4977198;28;20239;-76
2021/01/20 03:41:04;;;;;;;9.60;6.70;;;0.50;93.30;;;;;;4976956;28;20236;-77
2021/01/20 03:43:30;;;;;;;8.18;6.88;;;0.60;93.20;;;;;;4977627;28;20320;-77
2021/01/20 03:45:56;;;;;;;8.70;6.43;;;0.50;93.10;;;;;;4976610;28;20308;-77
2021/01/20 03:48:23;;;;;;;11.07;6.05;;;0.50;93.20;;;;;;4976891;28;20237;-76
2021/01/20 03:50:49;;;;;;;9.13;6.65;;;0.40;93.00;;;;;;4977222;28;20209;-76
2021/01/20 03:53:15;;;;;;;9.20;6.50;;;0.50;93.40;;;;;;4977972;28;20292;-77
2021/01/20 03:55:43;;;;;;;7.70;6.07;;;0.50;93.40;;;;;;4976754;28;20252;-75
2021/01/20 03:58:09;;;;;;;7.93;5.45;;;0.50;93.40;;;;;;4978828;28;20279;-80
2021/01/20 04:00:36;;;;;;;6.97;5.75;;;0.50;93.40;;;;;;4982882;28;20669;-77
2021/01/20 04:03:03;;;;;;;7.18;5.75;;;0.60;93.50;;;;;;4976782;28;20316;-76
2021/01/20 04:05:29;;;;;;;9.25;6.20;;;0.60;93.50;;;;;;4978621;28;20209;-77
2021/01/20 04:07:55;;;;;;;9.60;6.38;;;0.60;93.50;;;;;;4978648;28;20263;-76
2021/01/20 04:10:22;;;;;;;8.23;5.60;;;0.60;93.20;;;;;;4978730;28;20285;-77
2021/01/20 04:12:49;;;;;;;8.45;5.80;;;0.50;93.20;;;;;;4982219;28;20613;-77
2021/01/20 04:15:16;;;;;;;8.40;5.72;;;0.50;93.20;;;;;;4982885;28;20256;-79
2021/01/20 04:17:42;;;;;;;8.05;5.78;;;0.50;93.30;;;;;;4980838;28;20251;-78
2021/01/20 04:20:09;;;;;;;8.20;6.80;;;0.40;93.30;;;;;;4982111;28;20352;-77
2021/01/20 04:22:37;;;;;;;8.02;5.50;;;0.40;93.60;;;;;;4982298;28;20308;-78
2021/01/20 04:25:05;;;;;;;7.45;6.32;;;0.40;93.70;;;;;;4984928;28;20209;-78
2021/01/20 04:27:31;;;;;;;8.93;7.07;;;0.40;93.70;;;;;;4983422;28;20213;-77
2021/01/20 04:29:58;;;;;;;10.32;6.88;;;0.40;93.60;;;;;;4987266;28;20292;-75
2021/01/20 04:32:25;;;;;;;6.60;5.22;;;0.40;93.60;;;;;;4978779;28;20580;-76
2021/01/20 04:34:51;;;;;;;8.18;6.05;;;0.30;93.60;;;;;;4978576;28;20685;-77
2021/01/20 04:37:17;;;;;;;8.15;6.32;;;0.30;93.90;;;;;;4975944;28;20292;-76
2021/01/20 04:39:44;;;;;;;11.18;7.10;;;0.30;94.10;;;;;;4979391;28;20241;-76
2021/01/20 04:42:10;;;;;;;11.02;6.53;;;0.40;94.40;;;;;;4984657;28;20236;-76
2021/01/20 04:44:37;;;;;;;9.57;6.90;;;0.40;94.30;;;;;;4981039;28;20632;-76
2021/01/20 04:47:05;;;;;;;9.68;6.75;;;0.40;94.50;;;;;;4978140;28;20305;-77
2021/01/20 04:49:34;;;;;;;7.07;5.30;;;0.40;94.30;;;;;;4986596;28;20229;-76
2021/01/20 04:52:01;;;;;;;9.20;6.50;;;0.40;94.30;;;;;;4985406;28;20263;-74
2021/01/20 04:54:30;;;;;;;8.63;5.80;;;0.50;94.40;;;;;;4977415;28;20205;-76
2021/01/20 04:56:57;;;;;;;6.13;5.05;;;0.50;94.70;;;;;;4977460;28;20216;-75
2021/01/20 04:59:29;;;;;;;10.10;5.80;;;0.70;94.80;;;;;;4977198;28;20724;-74
2021/01/20 05:01:56;;;;;;;6.18;5.28;;;0.70;94.60;;;;;;4983410;28;20371;-75
2021/01/20 05:04:24;;;;;;;6.75;5.47;;;0.80;94.60;;;;;;4981452;28;20251;-76
2021/01/20 05:06:50;;;;;;;5.93;5.10;;;0.80;94.30;;;;;;4980972;28;20240;-77
2021/01/20 05:09:17;;;;;;;9.18;5.47;;;0.90;93.90;;;;;;4978795;28;20592;-77
2021/01/20 05:11:45;;;;;;;8.00;5.72;;;0.90;93.90;;;;;;4979574;28;20209;-77
2021/01/20 05:14:14;;;;;;;7.90;6.15;;;1.00;93.70;;;;;;4984402;28;20235;-77
2021/01/20 05:16:41;;;;;;;7.40;6.22;;;1.00;92.70;;;;;;4992252;28;20217;-75
2021/01/20 05:19:07;;;;;;;7.38;6.38;;;1.10;92.80;;;;;;4992253;28;20673;-76
2021/01/20 05:21:34;;;;;;;7.97;6.03;;;1.10;92.50;;;;;;4980575;28;20240;-78
2021/01/20 05:24:21;;;;;;;5.47;4.97;;;1.10;91.90;;;;;;4983872;28;20669;-77
2021/01/20 05:26:49;;;;;;;7.05;5.28;;;1.10;91.90;;;;;;4984089;28;20232;-78
2021/01/20 05:29:16;;;;;;;6.60;5.10;;;1.20;91.70;;;;;;4983300;28;20301;-78
2021/01/20 05:31:42;;;;;;;9.45;5.70;;;1.20;91.40;;;;;;4980411;28;20236;-76
2021/01/20 05:34:32;;;;;;;7.13;5.18;;;1.30;91.30;;;;;;4984386;28;20573;-76
2021/01/20 05:37:06;;;;;;;8.98;5.60;;;1.30;91.00;;;;;;4981659;28;20272;-76
2021/01/20 05:39:34;;;;;;;5.93;5.32;;;1.40;90.90;;;;;;4980387;28;20316;-78
2021/01/20 05:42:03;;;;;;;5.88;5.25;;;1.40;90.40;;;;;;4977200;28;20300;-77
2021/01/20 05:44:30;;;;;;;5.45;4.65;;;1.40;90.20;;;;;;4976872;28;20232;-75
2021/01/20 05:46:56;;;;;;;7.20;4.85;;;1.50;90.20;;;;;;4975662;28;20372;-75
2021/01/20 05:49:24;;;;;;;8.07;5.15;;;1.50;89.40;;;;;;4975716;28;20256;-74
2021/01/20 05:51:52;;;;;;;6.30;4.78;;;1.40;86.60;;;;;;4976734;28;20270;-74
2021/01/20 05:54:31;;;;;;;6.53;4.95;;;1.50;86.60;;;;;;4976285;28;20288;-74
2021/01/20 05:57:15;;;;;;;6.13;5.03;;;1.40;86.60;;;;;;4976057;28;20232;-78
2021/01/20 05:59:42;;;;;;;7.32;5.07;;;1.50;86.90;;;;;;4981783;28;20264;-76
2021/01/20 06:02:10;;;;;;;5.60;5.10;;;1.50;88.00;;;;;;4979809;28;20296;-75
2021/01/20 06:04:37;;;;;;;5.70;5.20;;;1.60;87.50;;;;;;4979385;28;20235;-75
2021/01/20 06:07:05;;;;;;;8.27;5.10;;;1.60;86.70;;;;;;4977456;28;20303;-73
2021/01/20 06:09:34;;;;;;;7.32;5.40;;;1.60;86.70;;;;;;4975972;28;20300;-77
2021/01/20 06:12:02;;;;;;;5.80;5.20;;;1.50;86.60;;;;;;4977622;28;20228;-77
2021/01/20 06:14:28;;;;;;;7.53;6.05;;;1.50;86.60;;;;;;4978754;28;20205;-78
2021/01/20 06:17:03;;;;;;;6.22;5.53;;;1.50;86.70;;;;;;4987427;28;20228;-79
2021/01/20 06:19:32;;;;;;;8.32;5.50;;;1.60;86.70;;;;;;4987778;28;20255;-76
2021/01/20 06:22:00;;;;;;;8.75;6.18;;;1.60;86.70;;;;;;4975529;28;20216;-78
2021/01/20 06:24:33;;;;;;;8.48;6.60;;;1.50;86.70;;;;;;4976947;28;20248;-76
2021/01/20 06:27:06;;;;;;;9.75;5.70;;;1.50;86.70;;;;;;4978491;28;20241;-76
2021/01/20 06:29:38;;;;;;;7.00;5.75;;;1.50;86.60;;;;;;4979001;28;20288;-75
2021/01/20 06:32:07;;;;;;;9.35;6.60;;;1.50;86.60;;;;;;4992886;28;20197;-80
2021/01/20 06:34:33;;;;;;;11.93;10.70;;;1.50;86.60;;;;;;4996020;28;20201;-79
2021/01/20 06:36:59;;;;;;;7.10;6.40;;;1.50;86.80;;;;;;4996028;28;20209;-80
2021/01/20 06:39:34;;;;;;;7.45;5.80;;;1.60;87.10;;;;;;4993859;28;20297;-80
2021/01/20 06:42:03;;;;;;;8.38;5.70;;;1.60;87.30;;;;;;4984215;28;20207;-74
2021/01/20 06:44:29;;;;;;;7.63;5.70;;;1.70;87.50;;;;;;4980646;28;20229;-78
2021/01/20 06:47:01;;;;;;;9.32;6.45;;;1.70;87.10;;;;;;4994748;28;20200;-78
2021/01/20 06:49:28;;;;;;;6.65;5.63;;;1.70;87.30;;;;;;4994843;28;20253;-80
2021/01/20 06:52:09;;;;;;;8.57;5.90;;;1.80;87.60;;;;;;4995909;28;20233;-79
2021/01/20 06:54:49;;;;;;;13.10;7.80;;;1.90;87.20;;;;;;4991247;28;20216;-77
2021/01/20 06:57:32;;;;;;;11.65;8.02;;;1.90;87.00;;;;;;4991463;28;20233;-77
2021/01/20 07:00:16;;;;;;;11.70;7.50;;;1.90;87.00;;;;;;4981215;28;20328;-78
2021/01/20 07:02:59;;;;;;;9.60;6.95;;;1.90;87.00;;;;;;4989815;28;20232;-81
2021/01/20 07:05:34;;;;;;;7.70;5.68;;;1.90;85.40;;;;;;4992205;28;20236;-79
2021/01/20 07:08:01;;;;;;;9.60;5.65;;;1.90;85.40;;;;;;4991674;28;20416;-78
2021/01/20 07:10:52;;;;;;;9.32;6.10;;;2.00;84.90;;;;;;4990260;28;20251;-75
2021/01/20 07:13:30;;;;;;;6.82;5.22;;;2.00;84.80;;;;;;4978137;28;20757;-78
2021/01/20 07:15:58;;;;;;;9.73;5.88;;;1.90;84.30;;;;;;4981818;28;20197;-78
2021/01/20 07:18:25;;;;;;;8.50;6.40;;;1.90;84.90;;;;;;4983527;28;20312;-75
2021/01/20 07:20:53;;;;;;;8.02;6.45;;;2.00;85.20;;;;;;4977411;28;20247;-77
2021/01/20 07:23:20;;;;;;;10.32;6.13;;;2.10;84.60;;;;;;4977514;28;20229;-75
2021/01/20 07:26:05;;;;;;;14.38;9.40;;;2.10;84.50;;;;;;4978747;28;20221;-78
2021/01/20 07:28:34;;;;;;;12.82;8.73;;;2.10;84.20;;;;;;4978289;28;20717;-78
2021/01/20 07:31:05;;;;;;;14.85;8.18;;;2.10;84.30;;;;;;4977594;28;20205;-77
2021/01/20 07:33:32;;;;;;;12.50;7.28;;;2.20;84.70;;;;;;4977333;28;20216;-76
2021/01/20 07:36:09;;;;;;;8.75;7.00;;;2.20;84.80;;;;;;4977294;28;20212;-75
2021/01/20 07:38:36;;;;;;;9.15;7.55;;;2.30;84.30;;;;;;4977039;28;20845;-77
2021/01/20 07:41:13;;;;;;;11.80;7.00;;;2.40;84.00;;;;;;4976425;28;20855;-76
2021/01/20 07:43:40;;;;;;;9.10;6.72;;;2.40;83.30;;;;;;4976672;28;20300;-77
2021/01/20 07:46:14;;;;;;;11.23;5.82;;;2.50;83.40;;;;;;4961048;28;20198;-75
2021/01/20 07:48:40;;;;;;;10.77;6.95;;;2.60;82.70;;;;;;4959824;28;20333;-75
2021/01/20 07:51:07;;;;;;;10.27;6.70;;;2.80;81.90;;;;;;4956813;28;20348;-75
2021/01/20 07:53:34;;;;;;;7.28;5.68;;;2.80;79.70;;;;;;4956720;28;20270;-75
2021/01/20 07:56:00;;;;;;;9.82;5.45;;;2.90;77.70;;;;;;4956082;28;20698;-75
2021/01/20 07:58:27;;;;;;;7.68;6.25;;;2.90;76.20;;;;;;4956778;28;20710;-75
2021/01/20 08:00:55;;;;;;;9.70;6.80;;;3.00;76.30;;;;;;4960139;28;20252;-77
2021/01/20 08:03:33;;;;;;;8.07;6.05;;;3.00;75.50;;;;;;4977707;28;20245;-76
2021/01/20 08:06:01;;;;;;;10.35;5.75;;;3.00;74.90;;;;;;4977662;28;20212;-76
2021/01/20 08:08:27;;;;;;;10.43;6.82;;;3.10;75.20;;;;;;4982574;28;20280;-74
2021/01/20 08:11:00;;;;;;;9.65;7.10;;;3.10;74.60;;;;;;4991156;28;20293;-77
2021/01/20 08:13:29;;;;;;;20.50;11.70;;;3.20;74.20;;;;;;4994196;28;20202;-78
2021/01/20 08:15:57;;;;;;;9.60;7.15;;;3.20;73.70;;;;;;4984110;28;20249;-78
2021/01/20 08:18:23;;;;;;;13.27;8.38;;;3.10;73.90;;;;;;4983758;28;20328;-79
2021/01/20 08:20:50;;;;;;;15.90;7.57;;;3.30;74.10;;;;;;4983573;28;20204;-76
2021/01/20 08:23:31;;;;;;;14.25;7.90;;;3.30;72.90;;;;;;4983371;28;20291;-76
2021/01/20 08:26:07;;;;;;;13.30;6.85;;;3.30;71.60;;;;;;4982030;28;20296;-77
2021/01/20 08:28:34;;;;;;;8.43;6.07;;;3.40;72.20;;;;;;4980292;28;20353;-76
2021/01/20 08:31:20;;;;;;;10.45;6.00;;;3.50;71.70;;;;;;4979046;28;20677;-78
2021/01/20 08:33:47;;;;;;;9.50;6.95;;;3.60;71.80;;;;;;5004208;28;20260;-77
2021/01/20 08:36:23;;;;;;;16.65;6.15;;;3.60;71.80;;;;;;5006910;28;20223;-78
2021/01/20 08:38:49;;;;;;;8.63;5.07;;;3.80;72.00;;;;;;5002329;28;20597;-77
2021/01/20 08:41:17;;;;;;;6.65;5.40;;;3.80;69.50;;;;;;5000967;28;20243;-78
2021/01/20 08:43:44;;;;;;;10.88;6.32;;;4.00;69.00;;;;;;5002091;28;20239;-78
2021/01/20 08:46:22;;;;;;;8.07;6.00;;;4.10;68.20;;;;;;5001772;28;20223;-77
2021/01/20 08:48:55;;;;;;;8.18;5.18;;;4.10;67.90;;;;;;5002520;28;20259;-78
2021/01/20 08:51:21;;;;;;;8.30;5.75;;;4.30;67.20;;;;;;5007674;28;20196;-80
2021/01/20 08:53:48;;;;;;;8.75;4.93;;;4.20;65.60;;;;;;5004291;28;20216;-76
2021/01/20 08:56:24;;;;;;;10.82;5.88;;;4.30;65.90;;;;;;5007517;28;20685;-76
2021/01/20 08:58:53;;;;;;;7.50;5.68;;;4.40;65.10;;;;;;5005353;28;20227;-77
2021/01/20 09:01:26;;;;;;;8.00;6.00;;;4.50;64.60;;;;;;5006702;28;20205;-75
2021/01/20 09:03:58;;;;;;;9.48;6.70;;;4.60;64.00;;;;;;5009592;28;20625;-77
2021/01/20 09:06:26;;;;;;;8.98;5.72;;;4.70;64.10;;;;;;5006191;28;20646;-75
2021/01/20 09:08:52;;;;;;;10.23;7.32;;;4.70;64.10;;;;;;5001285;28;20233;-79
2021/01/20 09:11:19;;;;;;;8.63;5.97;;;4.70;63.80;;;;;;5003396;28;20205;-77
2021/01/20 09:13:46;;;;;;;9.90;6.95;;;4.80;64.10;;;;;;5008808;28;20207;-74
2021/01/20 09:16:12;;;;;;;10.95;7.28;;;4.90;63.00;;;;;;5012325;28;20332;-74
2021/01/20 09:18:40;;;;;;;15.57;8.82;;;5.00;62.80;;;;;;5009923;28;20283;-76
2021/01/20 09:21:07;;;;;;;18.52;8.55;;;5.20;62.60;;;;;;4998872;28;20211;-76
2021/01/20 09:23:33;;;;;;;14.32;7.40;;;5.20;62.20;;;;;;4997708;28;20597;-77
2021/01/20 09:26:00;;;;;;;10.48;7.53;;;5.30;61.90;;;;;;4998868;28;20547;-78
2021/01/20 09:28:26;;;;;;;13.23;7.70;;;5.40;61.30;;;;;;5001788;28;20348;-77
2021/01/20 09:30:53;;;;;;;10.45;7.32;;;5.50;61.00;;;;;;5011853;28;20209;-76
2021/01/20 09:33:20;;;;;;;14.35;10.55;;;5.50;61.10;;;;;;5000423;28;20216;-77
2021/01/20 09:35:47;;;;;;;8.25;6.22;;;5.50;61.20;;;;;;5000043;28;20208;-75
2021/01/20 09:38:17;;;;;;;8.77;7.05;;;5.40;61.90;;;;;;5000668;28;20232;-74
2021/01/20 09:40:44;;;;;;;13.13;7.65;;;5.50;61.40;;;;;;4998970;28;20220;-75
2021/01/20 09:43:10;;;;;;;10.75;6.25;;;5.60;61.00;;;;;;4998665;28;20247;-74
2021/01/20 09:45:37;;;;;;;6.90;6.00;;;5.70;61.20;;;;;;4998066;28;20208;-75
2021/01/20 09:48:06;;;;;;;8.23;5.47;;;5.40;60.20;;;;;;4997222;28;20304;-76
2021/01/20 09:50:34;;;;;;;8.52;6.05;;;5.40;61.60;;;;;;4997295;28;20208;-75
2021/01/20 09:53:01;;;;;;;13.15;8.70;;;5.60;61.50;;;;;;4999828;28;20208;-74
2021/01/20 09:55:28;;;;;;;16.88;8.65;;;5.60;60.40;;;;;;5001618;28;20219;-74
2021/01/20 09:57:55;;;;;;;8.90;6.70;;;5.60;61.20;;;;;;5001931;28;20702;-74
2021/01/20 10:00:22;;;;;;;12.93;6.57;;;5.80;60.90;;;;;;5000756;28;20663;-74
2021/01/20 10:02:48;;;;;;;9.35;4.97;;;5.80;59.70;;;;;;4996332;28;20220;-74
2021/01/20 10:05:15;;;;;;;7.72;5.90;;;5.60;59.60;;;;;;4995385;28;20292;-75
2021/01/20 10:07:42;;;;;;;8.98;5.10;;;5.90;60.00;;;;;;4997832;28;20209;-75
2021/01/20 10:10:11;;;;;;;10.13;5.70;;;6.00;58.30;;;;;;4996655;28;20303;-75
2021/01/20 10:12:38;;;;;;;10.15;5.72;;;6.30;57.90;;;;;;4997667;28;20823;-77
2021/01/20 10:15:06;;;;;;;14.55;6.43;;;6.50;56.60;;;;;;5000313;28;20291;-76
2021/01/20 10:17:33;;;;;;;11.95;6.35;;;6.30;56.50;;;;;;4997840;28;20281;-75
2021/01/20 10:19:59;;;;;;;7.07;5.30;;;6.20;56.40;;;;;;4996114;28;20836;-75
2021/01/20 10:22:25;;;;;;;7.35;5.35;;;6.30;57.10;;;;;;4994496;28;20216;-76
2021/01/20 10:24:52;;;;;;;7.95;5.75;;;6.50;56.60;;;;;;5006586;28;20228;-74
2021/01/20 10:27:19;;;;;;;7.25;5.28;;;6.60;56.70;;;;;;5005819;28;20219;-72
2021/01/20 10:29:45;;;;;;;7.90;5.28;;;6.30;56.50;;;;;;4995300;28;20661;-73
2021/01/20 10:32:12;;;;;;;7.90;5.22;;;6.10;57.60;;;;;;4995923;28;20251;-76
2021/01/20 10:34:38;;;;;;;8.60;5.40;;;6.50;57.80;;;;;;4997112;28;20208;-77
2021/01/20 10:37:05;;;;;;;5.53;4.82;;;6.40;56.60;;;;;;4998033;28;20255;-75
2021/01/20 10:39:31;;;;;;;7.97;5.22;;;6.80;56.20;;;;;;4996997;28;20232;-75
2021/01/20 10:41:58;;;;;;;7.18;5.38;;;6.70;55.40;;;;;;4995020;28;20250;-76
2021/01/20 10:44:26;;;;;;;8.27;5.65;;;6.90;55.70;;;;;;4994773;28;20236;-73
2021/01/20 10:46:52;;;;;;;7.07;4.85;;;7.10;54.40;;;;;;5002367;28;20213;-74
2021/01/20 10:49:18;;;;;;;6.45;4.95;;;7.00;53.50;;;;;;5010890;28;20232;-75
2021/01/20 10:51:45;;;;;;;7.50;5.15;;;7.10;53.90;;;;;;4998882;28;20283;-75
2021/01/20 10:54:11;;;;;;;6.38;4.55;;;7.30;53.50;;;;;;4995378;28;20204;-77
2021/01/20 10:56:38;;;;;;;5.97;4.68;;;7.30;54.00;;;;;;4992459;28;20233;-75
2021/01/20 10:59:04;;;;;;;5.38;4.50;;;7.30;52.90;;;;;;4983552;28;20290;-76
2021/01/20 11:01:31;;;;;;;5.15;4.45;;;7.10;53.70;;;;;;4996545;28;20625;-78
2021/01/20 11:03:58;;;;;;;8.48;4.10;;;7.10;53.60;;;;;;4987172;28;20224;-77
2021/01/20 11:06:24;;;;;;;4.45;3.72;;;6.90;53.70;;;;;;4998419;28;20304;-77
2021/01/20 11:08:51;;;;;;;7.38;4.82;;;6.90;54.60;;;;;;5000652;28;20708;-76
2021/01/20 11:11:18;;;;;;;7.68;5.30;;;6.80;54.30;;;;;;4998738;28;20733;-74
2021/01/20 11:13:44;;;;;;;7.07;3.85;;;6.90;55.40;;;;;;4997115;28;20211;-75
2021/01/20 11:16:12;;;;;;;7.28;4.70;;;6.90;54.10;;;;;;5004330;28;20212;-75
2021/01/20 11:18:39;;;;;;;9.95;4.95;;;7.10;54.40;;;;;;5001705;28;20236;-74
2021/01/20 11:21:14;;;;;;;7.72;4.50;;;7.30;52.90;;;;;;5004544;28;20212;-74
2021/01/20 11:23:41;;;;;;;4.75;3.83;;;7.30;51.70;;;;;;5001842;28;20250;-75
2021/01/20 11:26:09;;;;;;;7.40;4.45;;;7.30;52.30;;;;;;4997904;28;20227;-75
2021/01/20 11:28:36;;;;;;;5.47;4.10;;;7.50;52.60;;;;;;4994463;28;20311;-72
2021/01/20 11:31:03;;;;;;;6.32;4.18;;;7.80;52.30;;;;;;4994318;28;20224;-75
2021/01/20 11:33:30;;;;;;;7.88;4.18;;;8.00;51.70;;;;;;4989156;28;20241;-73
2021/01/20 11:35:57;;;;;;;5.60;4.45;;;8.10;50.60;;;;;;4988499;28;20237;-74
2021/01/20 11:38:23;;;;;;;4.80;3.97;;;8.20;50.20;;;;;;4995613;28;20232;-76
2021/01/20 11:40:50;;;;;;;5.43;4.20;;;8.10;50.50;;;;;;4998880;28;20263;-73
2021/01/20 11:43:16;;;;;;;7.93;4.60;;;8.20;51.00;;;;;;4998876;28;20264;-76
2021/01/20 11:45:43;;;;;;;6.95;3.95;;;8.60;50.10;;;;;;4992317;28;20209;-75
2021/01/20 11:48:09;;;;;;;7.63;4.20;;;8.30;49.90;;;;;;4997923;28;20225;-77
2021/01/20 11:50:36;;;;;;;6.90;4.45;;;8.50;48.90;;;;;;5007157;28;20193;-78
2021/01/20 11:53:06;;;;;;;6.05;3.80;;;8.60;49.00;;;;;;5018004;28;20200;-76
2021/01/20 11:55:32;;;;;;;5.60;3.88;;;8.30;50.00;;;;;;5010578;28;20208;-73
2021/01/20 11:57:59;;;;;;;11.05;4.80;;;8.20;50.90;;;;;;5013090;28;20228;-77
2021/01/20 12:00:26;;;;;;;5.35;4.20;;;8.50;51.20;;;;;;5011988;28;20208;-73
2021/01/20 12:02:52;;;;;;;6.68;5.38;;;8.40;50.50;;;;;;5002948;28;20216;-73
2021/01/20 12:05:19;;;;;;;7.45;5.20;;;8.70;49.90;;;;;;5014402;28;20215;-77
2021/01/20 12:07:47;;;;;;;4.00;3.33;;;8.70;50.40;;;;;;5013709;28;20297;-75
2021/01/20 12:10:15;;;;;;;4.85;4.25;;;8.80;49.20;;;;;;5013180;28;20249;-75
2021/01/20 12:12:42;;;;;;;6.53;4.65;;;9.10;49.40;;;;;;5007005;28;20208;-75
2021/01/20 12:15:10;;;;;;;5.20;4.53;;;8.90;49.30;;;;;;5009760;28;20209;-76
2021/01/20 12:17:37;;;;;;;6.80;4.43;;;8.80;49.20;;;;;;5009862;28;20212;-74
2021/01/20 12:20:05;;;;;;;7.03;4.68;;;8.80;49.20;;;;;;5010372;28;20236;-74
2021/01/20 12:22:32;;;;;;;6.68;4.32;;;8.60;49.90;;;;;;5015121;28;20192;-78
2021/01/20 12:24:59;;;;;;;6.20;4.15;;;8.40;51.00;;;;;;5012836;28;20336;-74
2021/01/20 12:27:26;;;;;;;6.40;5.03;;;8.50;50.90;;;;;;5013839;28;20216;-74
2021/01/20 12:29:53;;;;;;;6.38;4.28;;;8.60;51.50;;;;;;5015187;28;20279;-75
2021/01/20 12:32:20;;;;;;;7.60;5.22;;;8.50;50.90;;;;;;5016965;28;20204;-74
2021/01/20 12:34:46;;;;;;;10.18;5.38;;;8.50;51.60;;;;;;5013363;28;20208;-75
2021/01/20 12:37:13;;;;;;;10.02;5.85;;;8.60;50.50;;;;;;5012998;28;20232;-76
2021/01/20 12:39:40;;;;;;;7.20;4.50;;;8.70;51.30;;;;;;5012070;28;20229;-75
2021/01/20 12:42:06;;;;;;;7.43;4.85;;;8.90;49.30;;;;;;5012720;28;20220;-78
2021/01/20 12:44:34;;;;;;;8.65;4.90;;;9.10;49.50;;;;;;5011214;28;20232;-77
2021/01/20 12:47:01;;;;;;;7.90;5.40;;;9.00;49.40;;;;;;5006070;28;20255;-76
2021/01/20 12:49:30;;;;;;;13.48;6.72;;;9.20;49.50;;;;;;5004513;28;20661;-79
2021/01/20 12:51:56;;;;;;;8.10;4.68;;;9.50;49.80;;;;;;5002154;28;20267;-73
2021/01/20 12:54:23;;;;;;;6.88;4.85;;;9.60;49.90;;;;;;5003564;28;20212;-76
2021/01/20 12:56:50;;;;;;;6.35;4.70;;;9.30;49.60;;;;;;5003323;28;20213;-75
2021/01/20 12:59:16;;;;;;;8.05;5.47;;;9.20;49.50;;;;;;5005250;28;20229;-74